Goodrich, North Dakota
Current Conditions -  °F | °C
As of 4:55 PM on Monday 24 Nov 2014 (Local Time) from K5H4 Reporting Station
Clear Clear  
Wind Chill:   Ceiling: Unl
Heat Index: 14°   Visibility: 10mi
Dew Point:   Wind: 7mph
Humidity: 62%   Direction: 270°W
Pressure: 29.96"   Gusts: NA
Location:  47.47°N, 100.13°W
Report Text: K5H4 242255Z AUTO 27006KT 10SM CLR M10/M16 A2996 RMK AO2
Loading
Personal Weather Stations






























Interactive Weather Map New forecast layout! Learn more

10-Day Weather Forecast

Advertisements
Track Severe Weather on mobile